createdAt,value
2022-11-02T00:00:13.413Z,14.87
2022-11-02T00:01:21.688Z,14.88
2022-11-02T00:02:24.308Z,14.88
2022-11-02T00:03:25.895Z,14.88
2022-11-02T00:04:28.466Z,14.88
2022-11-02T00:05:30.991Z,14.88
2022-11-02T00:06:33.568Z,14.89
2022-11-02T00:07:35.061Z,14.91
2022-11-02T00:08:37.531Z,14.90
2022-11-02T00:09:39.233Z,14.90
2022-11-02T00:10:43.078Z,14.90
2022-11-02T00:11:44.673Z,14.91
2022-11-02T00:12:47.546Z,14.90
2022-11-02T00:13:49.130Z,14.92
2022-11-02T00:14:51.640Z,14.91
2022-11-02T00:15:53.226Z,14.91
2022-11-02T00:16:55.819Z,14.91
2022-11-02T00:19:08.581Z,14.92
2022-11-02T00:20:12.388Z,14.92
2022-11-02T00:21:16.404Z,14.92
2022-11-02T00:22:17.987Z,14.92
2022-11-02T00:23:20.538Z,14.90
2022-11-02T00:24:22.717Z,14.92
2022-11-02T00:25:26.943Z,14.91
2022-11-02T00:26:29.924Z,14.91
2022-11-02T00:27:32.876Z,14.91
2022-11-02T00:28:34.615Z,14.91
2022-11-02T00:29:37.219Z,14.93
2022-11-02T00:30:38.855Z,14.93
2022-11-02T00:31:41.389Z,14.93
2022-11-02T00:32:42.936Z,14.93
2022-11-02T00:33:45.515Z,14.94
2022-11-02T00:34:47.077Z,14.95
2022-11-02T00:35:50.112Z,14.94
2022-11-02T00:36:55.556Z,14.94
2022-11-02T00:37:59.649Z,14.95
2022-11-02T00:39:01.196Z,14.95
2022-11-02T00:40:05.222Z,14.97
2022-11-02T00:41:06.770Z,14.97
2022-11-02T00:42:11.119Z,14.98
2022-11-02T00:43:12.799Z,14.97
2022-11-02T00:44:15.370Z,14.97
2022-11-02T00:45:17.359Z,14.98
2022-11-02T00:46:20.118Z,14.97
2022-11-02T00:47:21.830Z,14.98
2022-11-02T00:48:24.345Z,14.98
2022-11-02T00:49:25.886Z,14.98
2022-11-02T00:50:28.449Z,15.00
2022-11-02T00:51:30.113Z,15.00
2022-11-02T00:52:32.618Z,15.00
2022-11-02T00:53:34.141Z,15.01
2022-11-02T00:54:36.804Z,15.01
2022-11-02T00:55:38.349Z,15.02
2022-11-02T00:56:40.864Z,15.02
2022-11-02T00:57:44.202Z,15.04
2022-11-02T00:58:46.725Z,15.04
2022-11-02T00:59:48.477Z,15.03
2022-11-02T01:00:51.009Z,15.05
2022-11-02T01:01:52.669Z,15.05
2022-11-02T01:02:56.027Z,15.05
2022-11-02T01:03:57.838Z,15.05
2022-11-02T01:05:00.393Z,15.04
2022-11-02T01:06:08.813Z,15.02
2022-11-02T01:07:12.380Z,14.99
2022-11-02T01:08:13.927Z,14.98
2022-11-02T01:09:16.972Z,14.96
2022-11-02T01:10:18.619Z,14.94
2022-11-02T01:11:23.399Z,14.93
2022-11-02T01:12:25.112Z,14.92
2022-11-02T01:13:29.011Z,14.91
2022-11-02T01:14:30.691Z,14.90
2022-11-02T01:15:33.212Z,14.90
2022-11-02T01:16:34.843Z,14.90
2022-11-02T01:17:37.655Z,14.91
2022-11-02T01:18:40.807Z,14.90
2022-11-02T01:19:43.332Z,14.91
2022-11-02T01:20:44.829Z,14.92
2022-11-02T01:21:47.294Z,14.92
2022-11-02T01:22:48.827Z,14.93
2022-11-02T01:23:51.619Z,14.93
2022-11-02T01:24:53.286Z,14.96
2022-11-02T01:25:55.816Z,14.97
2022-11-02T01:26:57.360Z,15.00
2022-11-02T01:27:59.857Z,15.02
2022-11-02T01:29:02.739Z,15.05
2022-11-02T01:30:06.434Z,15.07
2022-11-02T01:31:09.300Z,15.09
2022-11-02T01:32:11.950Z,15.11
2022-11-02T01:33:13.470Z,15.13
2022-11-02T01:34:16.348Z,15.15
2022-11-02T01:35:17.934Z,15.15
2022-11-02T01:37:27.796Z,15.16
2022-11-02T01:38:31.375Z,15.16
2022-11-02T01:39:32.974Z,15.14
2022-11-02T01:40:36.415Z,15.11
2022-11-02T01:41:38.543Z,15.09
2022-11-02T01:42:41.013Z,15.08
2022-11-02T01:43:43.982Z,15.06
2022-11-02T01:44:47.876Z,15.05
2022-11-02T01:45:52.261Z,15.04
2022-11-02T01:46:58.638Z,15.05
2022-11-02T01:48:00.301Z,15.06
2022-11-02T01:49:06.322Z,15.05
2022-11-02T01:50:12.371Z,15.06
2022-11-02T01:51:19.075Z,15.07
2022-11-02T01:52:24.450Z,15.08
2022-11-02T01:53:27.073Z,15.08
2022-11-02T01:54:32.067Z,15.06
2022-11-02T01:55:35.695Z,15.04
2022-11-02T01:56:39.576Z,15.02
2022-11-02T01:57:45.260Z,14.98
2022-11-02T01:58:57.677Z,14.95
2022-11-02T02:00:05.790Z,14.93
2022-11-02T02:01:08.183Z,14.89
2022-11-02T02:02:18.288Z,14.85
2022-11-02T02:03:21.324Z,14.83
2022-11-02T02:04:24.589Z,14.82
2022-11-02T02:05:26.509Z,14.79
2022-11-02T02:06:29.380Z,14.78
2022-11-02T02:07:32.944Z,14.77
2022-11-02T02:08:39.296Z,14.76
2022-11-02T02:09:41.341Z,14.75
2022-11-02T02:10:43.811Z,14.73
2022-11-02T02:11:45.521Z,14.72
2022-11-02T02:12:49.064Z,14.70
2022-11-02T02:13:51.245Z,14.70
2022-11-02T02:14:54.557Z,14.69
2022-11-02T02:16:09.009Z,14.68
2022-11-02T02:17:24.631Z,14.67
2022-11-02T02:18:33.053Z,14.64
2022-11-02T02:19:45.479Z,14.63
2022-11-02T02:21:22.099Z,14.60
2022-11-02T02:22:52.508Z,14.61
2022-11-02T02:24:23.071Z,14.60
2022-11-02T02:25:41.464Z,14.62
2022-11-02T02:27:01.476Z,14.64
2022-11-02T02:28:19.620Z,14.65
2022-11-02T02:29:25.407Z,14.68
2022-11-02T02:30:28.942Z,14.70
2022-11-02T02:31:37.652Z,14.71
2022-11-02T02:32:49.186Z,14.73
2022-11-02T02:33:59.074Z,14.75
2022-11-02T02:35:08.957Z,14.77
2022-11-02T02:36:17.233Z,14.79
2022-11-02T02:37:25.135Z,14.81
2022-11-02T02:38:33.501Z,14.82
2022-11-02T02:39:41.912Z,14.83
2022-11-02T02:40:50.939Z,14.85
2022-11-02T02:41:59.720Z,14.83
2022-11-02T02:43:09.427Z,14.83
2022-11-02T02:44:17.735Z,14.83
2022-11-02T02:45:25.499Z,14.84
2022-11-02T02:46:34.571Z,14.82
2022-11-02T02:47:44.257Z,14.81
2022-11-02T02:48:48.480Z,14.79
2022-11-02T02:49:54.644Z,14.76
2022-11-02T02:51:02.007Z,14.73
2022-11-02T02:52:07.294Z,14.71
2022-11-02T02:53:10.152Z,14.69
2022-11-02T02:54:17.910Z,14.67
2022-11-02T02:55:23.787Z,14.65
2022-11-02T02:56:30.581Z,14.62
2022-11-02T02:57:35.021Z,14.60
2022-11-02T02:58:43.686Z,14.56
2022-11-02T02:59:48.554Z,14.55
2022-11-02T03:00:52.893Z,14.55
2022-11-02T03:01:55.647Z,14.54
2022-11-02T03:03:02.259Z,14.51
2022-11-02T03:04:04.016Z,14.51
2022-11-02T03:05:23.284Z,14.50
2022-11-02T03:06:31.245Z,14.49
2022-11-02T03:07:34.469Z,14.48
2022-11-02T03:08:39.365Z,14.49
2022-11-02T03:09:44.397Z,14.48
2022-11-02T03:10:51.385Z,14.50
2022-11-02T03:12:05.608Z,14.50
2022-11-02T03:13:21.442Z,14.49
2022-11-02T03:14:35.526Z,14.50
2022-11-02T03:15:42.566Z,14.48
2022-11-02T03:18:14.559Z,14.44
2022-11-02T03:19:23.056Z,14.43
2022-11-02T03:20:30.698Z,14.42
2022-11-02T03:21:38.870Z,14.43
2022-11-02T03:22:52.971Z,14.43
2022-11-02T03:24:00.529Z,14.42
2022-11-02T03:25:16.056Z,14.42
2022-11-02T03:26:23.015Z,14.41
2022-11-02T03:27:35.483Z,14.40
2022-11-02T03:28:54.955Z,14.38
2022-11-02T03:30:06.326Z,14.37
2022-11-02T03:31:13.399Z,14.37
2022-11-02T03:32:24.705Z,14.34
2022-11-02T03:33:32.776Z,14.33
2022-11-02T03:34:39.983Z,14.32
2022-11-02T03:35:47.497Z,14.31
2022-11-02T03:36:53.242Z,14.30
2022-11-02T03:38:00.852Z,14.30
2022-11-02T03:39:08.340Z,14.29
2022-11-02T03:40:14.813Z,14.28
2022-11-02T03:41:18.795Z,14.27
2022-11-02T03:42:27.078Z,14.24
2022-11-02T03:43:29.625Z,14.23
2022-11-02T03:44:38.114Z,14.22
2022-11-02T03:45:43.482Z,14.21
2022-11-02T03:46:50.602Z,14.22
2022-11-02T03:47:55.184Z,14.21
2022-11-02T03:48:58.137Z,14.21
2022-11-02T03:50:02.110Z,14.20
2022-11-02T03:51:09.950Z,14.19
2022-11-02T03:52:16.693Z,14.18
2022-11-02T03:53:23.594Z,14.18
2022-11-02T03:54:33.894Z,14.17
2022-11-02T03:55:41.869Z,14.16
2022-11-02T03:56:46.466Z,14.15
2022-11-02T03:57:51.650Z,14.14
2022-11-02T03:58:53.289Z,14.12
2022-11-02T04:00:07.799Z,14.13
2022-11-02T04:01:11.267Z,14.12
2022-11-02T04:02:16.047Z,14.11
2022-11-02T04:03:19.657Z,14.10
2022-11-02T04:04:22.215Z,14.09
2022-11-02T04:05:28.511Z,14.09
2022-11-02T04:06:31.156Z,14.07
2022-11-02T04:07:55.403Z,14.07
2022-11-02T04:09:01.150Z,14.05
2022-11-02T04:10:02.647Z,14.05
2022-11-02T04:11:24.995Z,14.03
2022-11-02T04:12:45.363Z,14.04
2022-11-02T04:14:05.586Z,14.03
2022-11-02T04:15:09.847Z,14.00
2022-11-02T04:16:11.390Z,13.99
2022-11-02T04:17:33.077Z,13.98
2022-11-02T04:18:53.112Z,13.97
2022-11-02T04:19:56.726Z,13.98
2022-11-02T04:20:58.245Z,13.96
2022-11-02T04:22:18.543Z,13.96
2022-11-02T04:23:38.777Z,13.95
2022-11-02T04:24:59.649Z,13.92
2022-11-02T04:26:02.259Z,13.91
2022-11-02T04:27:03.845Z,13.91
2022-11-02T04:28:10.303Z,13.91
2022-11-02T04:29:12.126Z,13.90
2022-11-02T04:30:16.370Z,13.89
2022-11-02T04:31:17.881Z,13.89
2022-11-02T04:32:35.687Z,13.89
2022-11-02T04:33:38.211Z,13.89
2022-11-02T04:34:39.781Z,13.89
2022-11-02T04:35:41.337Z,13.87
2022-11-02T04:36:44.437Z,13.88
2022-11-02T04:38:04.974Z,13.87
2022-11-02T04:39:06.770Z,13.86
2022-11-02T04:40:09.262Z,13.87
2022-11-02T04:41:31.490Z,13.87
2022-11-02T04:42:34.043Z,13.87
2022-11-02T04:43:36.534Z,13.87
2022-11-02T04:44:39.024Z,13.87
2022-11-02T04:45:40.574Z,13.87
2022-11-02T04:46:44.769Z,13.86
2022-11-02T04:47:47.686Z,13.86
2022-11-02T04:48:50.444Z,13.86
2022-11-02T04:49:52.001Z,13.86
2022-11-02T04:50:55.199Z,13.85
2022-11-02T04:51:56.756Z,13.86
2022-11-02T04:52:59.759Z,13.85
2022-11-02T04:54:01.647Z,13.86
2022-11-02T04:55:04.228Z,13.83
2022-11-02T04:56:06.456Z,13.84
2022-11-02T04:57:08.968Z,13.83
2022-11-02T04:58:10.481Z,13.85
2022-11-02T04:59:13.071Z,13.84
2022-11-02T05:00:15.844Z,13.84
2022-11-02T05:01:19.932Z,13.85
2022-11-02T05:02:21.855Z,13.86
2022-11-02T05:03:25.823Z,13.85
2022-11-02T05:04:27.629Z,13.85
2022-11-02T05:05:30.221Z,13.87
2022-11-02T05:06:31.735Z,13.89
2022-11-02T05:07:34.185Z,13.92
2022-11-02T05:08:36.981Z,13.94
2022-11-02T05:09:42.163Z,13.96
2022-11-02T05:10:43.707Z,13.98
2022-11-02T05:11:46.162Z,14.00
2022-11-02T05:12:47.715Z,14.01
2022-11-02T05:13:51.985Z,14.01
2022-11-02T05:14:53.519Z,14.00
2022-11-02T05:15:56.519Z,13.99
2022-11-02T05:16:58.468Z,13.99
2022-11-02T05:18:01.104Z,14.00
2022-11-02T05:19:06.912Z,14.00
2022-11-02T05:20:12.570Z,14.02
2022-11-02T05:21:14.100Z,14.04
2022-11-02T05:22:16.872Z,14.07
2022-11-02T05:23:18.929Z,14.08
2022-11-02T05:24:21.428Z,14.09
2022-11-02T05:25:23.039Z,14.10
2022-11-02T05:26:25.566Z,14.12
2022-11-02T05:27:27.054Z,14.09
2022-11-02T05:28:31.618Z,14.08
2022-11-02T05:29:33.154Z,14.06
2022-11-02T05:30:35.775Z,14.05
2022-11-02T05:31:37.384Z,14.05
2022-11-02T05:32:39.987Z,14.04
2022-11-02T05:33:41.522Z,14.04
2022-11-02T05:34:45.368Z,14.05
2022-11-02T05:35:47.791Z,14.04
2022-11-02T05:36:50.614Z,14.02
2022-11-02T05:37:55.133Z,14.01
2022-11-02T05:38:57.890Z,13.99
2022-11-02T05:39:59.445Z,13.97
2022-11-02T05:41:01.968Z,13.94
2022-11-02T05:42:03.802Z,13.92
2022-11-02T05:43:06.712Z,13.91
2022-11-02T05:44:08.765Z,13.89
2022-11-02T05:45:11.690Z,13.89
2022-11-02T05:46:14.904Z,13.88
2022-11-02T05:47:17.443Z,13.87
2022-11-02T05:48:19.028Z,13.86
2022-11-02T05:49:21.662Z,13.85
2022-11-02T05:50:24.505Z,13.84
2022-11-02T05:51:27.020Z,13.83
2022-11-02T05:52:28.765Z,13.83
2022-11-02T05:53:32.552Z,13.84
2022-11-02T05:54:35.062Z,13.84
2022-11-02T05:55:36.556Z,13.83
2022-11-02T05:56:39.125Z,13.83
2022-11-02T05:57:40.681Z,13.82
2022-11-02T05:58:43.422Z,13.80
2022-11-02T05:59:48.290Z,13.79
2022-11-02T06:00:55.137Z,13.78
2022-11-02T06:01:56.761Z,13.77
2022-11-02T06:02:59.606Z,13.75
2022-11-02T06:04:01.107Z,13.75
2022-11-02T06:05:03.796Z,13.73
2022-11-02T06:06:10.329Z,13.72
2022-11-02T06:07:13.216Z,13.69
2022-11-02T06:08:14.722Z,13.67
2022-11-02T06:09:17.199Z,13.67
2022-11-02T06:10:18.889Z,13.67
2022-11-02T06:11:21.726Z,13.66
2022-11-02T06:12:23.290Z,13.65
2022-11-02T06:13:25.862Z,13.63
2022-11-02T06:14:27.512Z,13.65
2022-11-02T06:15:32.216Z,13.63
2022-11-02T06:16:34.039Z,13.62
2022-11-02T06:17:39.770Z,13.62
2022-11-02T06:18:41.418Z,13.60
2022-11-02T06:19:43.873Z,13.59
2022-11-02T06:20:45.398Z,13.59
2022-11-02T06:21:49.637Z,13.58
2022-11-02T06:22:51.636Z,13.56
2022-11-02T06:23:54.566Z,13.56
2022-11-02T06:24:56.103Z,13.55
2022-11-02T06:26:00.149Z,13.55
2022-11-02T06:27:02.613Z,13.53
2022-11-02T06:28:04.475Z,13.53
2022-11-02T06:29:07.181Z,13.52
2022-11-02T06:30:09.767Z,13.51
2022-11-02T06:31:12.538Z,13.51
2022-11-02T06:32:14.185Z,13.49
2022-11-02T06:33:17.738Z,13.50
2022-11-02T06:34:19.255Z,13.50
2022-11-02T06:35:23.336Z,13.49
2022-11-02T06:36:25.951Z,13.49
2022-11-02T06:37:31.393Z,13.47
2022-11-02T06:38:34.061Z,13.48
2022-11-02T06:40:44.140Z,13.46
2022-11-02T06:41:46.716Z,13.46
2022-11-02T06:43:03.472Z,13.46
2022-11-02T06:44:10.795Z,13.45
2022-11-02T06:45:12.428Z,13.45
2022-11-02T06:46:15.271Z,13.46
2022-11-02T06:47:16.812Z,13.47
2022-11-02T06:48:19.454Z,13.48
2022-11-02T06:49:22.453Z,13.50
2022-11-02T06:50:24.872Z,13.52
2022-11-02T06:51:27.394Z,13.56
2022-11-02T06:52:30.500Z,13.57
2022-11-02T06:53:33.386Z,13.58
2022-11-02T06:54:34.921Z,13.59
2022-11-02T06:55:37.392Z,13.60
2022-11-02T06:56:40.007Z,13.60
2022-11-02T06:57:42.482Z,13.62
2022-11-02T06:58:45.076Z,13.62
2022-11-02T06:59:50.038Z,13.63
2022-11-02T07:00:58.913Z,13.66
2022-11-02T07:02:00.777Z,13.68
2022-11-02T07:03:05.404Z,13.70
2022-11-02T07:04:08.124Z,13.71
2022-11-02T07:05:09.873Z,13.71
2022-11-02T07:06:14.661Z,13.72
2022-11-02T07:07:19.102Z,13.72
2022-11-02T07:08:24.070Z,13.73
2022-11-02T07:09:25.636Z,13.72
2022-11-02T07:10:30.197Z,13.73
2022-11-02T07:11:31.820Z,13.76
2022-11-02T07:12:34.514Z,13.76
2022-11-02T07:13:36.041Z,13.78
2022-11-02T07:14:38.641Z,13.79
2022-11-02T07:15:40.441Z,13.80
2022-11-02T07:16:42.952Z,13.80
2022-11-02T07:17:44.535Z,13.81
2022-11-02T07:18:47.035Z,13.81
2022-11-02T07:19:48.573Z,13.80
2022-11-02T07:20:51.152Z,13.79
2022-11-02T07:21:52.702Z,13.78
2022-11-02T07:22:56.983Z,13.77
2022-11-02T07:23:59.896Z,13.75
2022-11-02T07:25:02.397Z,13.74
2022-11-02T07:26:04.933Z,13.72
2022-11-02T07:27:07.725Z,13.72
2022-11-02T07:28:10.059Z,13.71
2022-11-02T07:29:13.848Z,13.70
2022-11-02T07:30:15.580Z,13.70
2022-11-02T07:31:18.074Z,13.70
2022-11-02T07:32:20.822Z,13.70
2022-11-02T07:33:22.439Z,13.69
2022-11-02T07:34:24.977Z,13.70
2022-11-02T07:35:26.539Z,13.70
2022-11-02T07:36:29.022Z,13.70
2022-11-02T07:37:30.592Z,13.71
2022-11-02T07:38:33.252Z,13.72
2022-11-02T07:39:37.161Z,13.72
2022-11-02T07:40:38.973Z,13.72
2022-11-02T07:41:42.421Z,13.73
2022-11-02T07:42:45.258Z,13.75
2022-11-02T07:43:47.724Z,13.75
2022-11-02T07:44:49.267Z,13.76
2022-11-02T07:45:51.767Z,13.75
2022-11-02T07:46:54.337Z,13.77
2022-11-02T07:47:56.021Z,13.77
2022-11-02T07:48:58.720Z,13.79
2022-11-02T07:50:01.999Z,13.79
2022-11-02T07:51:05.695Z,13.80
2022-11-02T07:52:08.280Z,13.79
2022-11-02T07:53:11.041Z,13.79
2022-11-02T07:54:13.778Z,13.79
2022-11-02T07:55:19.969Z,13.80
2022-11-02T07:56:22.430Z,13.80
2022-11-02T07:57:24.034Z,13.81
2022-11-02T07:58:26.922Z,13.81
2022-11-02T07:59:28.462Z,13.83
2022-11-02T08:00:33.517Z,13.83
2022-11-02T08:01:36.287Z,13.84
2022-11-02T08:02:38.438Z,13.84
2022-11-02T08:03:41.918Z,13.83
2022-11-02T08:04:45.071Z,13.85
2022-11-02T08:05:47.998Z,13.85
2022-11-02T08:06:52.259Z,13.85
2022-11-02T08:07:57.627Z,13.86
2022-11-02T08:09:00.130Z,13.86
2022-11-02T08:10:02.683Z,13.87
2022-11-02T08:11:09.519Z,13.87
2022-11-02T08:12:11.142Z,13.88
2022-11-02T08:13:15.612Z,13.89
2022-11-02T08:14:17.158Z,13.89
2022-11-02T08:15:20.068Z,13.90
2022-11-02T08:16:22.598Z,13.91
2022-11-02T08:17:24.383Z,13.91
2022-11-02T08:18:28.801Z,13.92
2022-11-02T08:19:30.633Z,13.93
2022-11-02T08:20:35.573Z,13.94
2022-11-02T08:21:38.107Z,13.94
2022-11-02T08:22:40.316Z,13.94
2022-11-02T08:23:42.816Z,13.96
2022-11-02T08:24:44.442Z,13.98
2022-11-02T08:25:48.521Z,13.98
2022-11-02T08:26:54.783Z,13.98
2022-11-02T08:27:58.051Z,14.00
2022-11-02T08:29:00.681Z,14.00
2022-11-02T08:30:02.423Z,14.02
2022-11-02T08:31:05.281Z,14.03
2022-11-02T08:32:06.921Z,14.05
2022-11-02T08:33:15.366Z,14.08
2022-11-02T08:34:17.835Z,14.10
2022-11-02T08:35:19.521Z,14.12
2022-11-02T08:36:22.032Z,14.13
2022-11-02T08:37:23.584Z,14.14
2022-11-02T08:38:26.192Z,14.16
2022-11-02T08:39:27.743Z,14.18
2022-11-02T08:40:30.554Z,14.19
2022-11-02T08:41:32.055Z,14.21
2022-11-02T08:42:38.865Z,14.23
2022-11-02T08:43:41.363Z,14.22
2022-11-02T08:44:43.388Z,14.25
2022-11-02T08:47:09.604Z,14.22
2022-11-02T08:48:12.746Z,14.26
2022-11-02T08:49:18.437Z,14.27
2022-11-02T08:50:20.489Z,14.29
2022-11-02T08:51:23.002Z,14.30
2022-11-02T08:52:24.701Z,14.31
2022-11-02T08:53:27.523Z,14.31
2022-11-02T08:54:29.083Z,14.31
2022-11-02T08:55:32.232Z,14.34
2022-11-02T08:56:34.829Z,14.34
2022-11-02T08:57:45.887Z,14.36
2022-11-02T08:58:48.467Z,14.35
2022-11-02T08:59:49.991Z,14.37
2022-11-02T09:00:54.157Z,14.39
2022-11-02T09:01:56.089Z,14.41
2022-11-02T09:03:00.469Z,14.44
2022-11-02T09:04:03.066Z,14.49
2022-11-02T09:05:05.464Z,14.52
2022-11-02T09:06:08.265Z,14.54
2022-11-02T09:07:10.744Z,14.56
2022-11-02T09:08:14.199Z,14.57
2022-11-02T09:09:16.736Z,14.57
2022-11-02T09:10:18.262Z,14.59
2022-11-02T09:11:20.760Z,14.60
2022-11-02T09:12:22.308Z,14.62
2022-11-02T09:13:26.260Z,14.65
2022-11-02T09:14:29.124Z,14.67
2022-11-02T09:15:32.805Z,14.66
2022-11-02T09:16:41.090Z,14.66
2022-11-02T09:17:45.866Z,14.66
2022-11-02T09:18:48.449Z,14.67
2022-11-02T09:19:49.988Z,14.68
2022-11-02T09:20:55.710Z,14.68
2022-11-02T09:21:59.578Z,14.67
2022-11-02T09:23:02.465Z,14.68
2022-11-02T09:24:05.695Z,14.69
2022-11-02T09:25:10.367Z,14.70
2022-11-02T09:26:12.883Z,14.73
2022-11-02T09:27:15.549Z,14.74
2022-11-02T09:28:17.152Z,14.76
2022-11-02T09:29:21.268Z,14.76
2022-11-02T09:30:23.670Z,14.75
2022-11-02T09:31:26.297Z,14.76
2022-11-02T09:32:28.143Z,14.76
2022-11-02T09:33:32.195Z,14.76
2022-11-02T09:34:33.775Z,14.75
2022-11-02T09:35:38.315Z,14.75
2022-11-02T09:36:40.970Z,14.72
2022-11-02T09:37:48.357Z,14.73
2022-11-02T09:38:53.696Z,14.71
2022-11-02T09:39:55.586Z,14.70
2022-11-02T09:41:08.727Z,14.70
2022-11-02T09:42:23.564Z,14.73
2022-11-02T09:43:38.631Z,14.75
2022-11-02T09:44:52.635Z,14.76
2022-11-02T09:45:59.027Z,14.81
2022-11-02T09:47:55.958Z,14.85
2022-11-02T09:48:39.993Z,14.88
2022-11-02T09:49:49.035Z,14.90
2022-11-02T09:51:06.423Z,14.90
2022-11-02T09:52:15.018Z,14.94
2022-11-02T09:53:34.325Z,14.95
2022-11-02T09:54:51.478Z,14.97
2022-11-02T09:56:04.649Z,15.01
2022-11-02T09:57:12.439Z,15.06
2022-11-02T09:58:30.976Z,15.11
2022-11-02T09:59:44.940Z,15.19
2022-11-02T10:01:04.027Z,15.24
2022-11-02T10:02:19.517Z,15.27
2022-11-02T10:03:44.521Z,15.28
2022-11-02T10:05:19.854Z,15.26
2022-11-02T10:06:26.594Z,15.24
2022-11-02T10:07:51.753Z,15.24
2022-11-02T10:09:06.376Z,15.21
2022-11-02T10:10:23.569Z,15.15
2022-11-02T10:11:48.030Z,15.10
2022-11-02T10:13:03.583Z,15.06
2022-11-02T10:14:14.621Z,15.04
2022-11-02T10:15:27.407Z,15.01
2022-11-02T10:16:47.536Z,15.01
2022-11-02T10:18:01.599Z,15.03
2022-11-02T10:19:12.353Z,15.04
2022-11-02T10:20:27.485Z,15.04
2022-11-02T10:21:34.523Z,15.04
2022-11-02T10:22:48.587Z,15.05
2022-11-02T10:24:10.109Z,15.05
2022-11-02T10:25:23.232Z,15.06
2022-11-02T10:26:35.265Z,15.07
2022-11-02T10:27:51.143Z,15.07
2022-11-02T10:29:00.086Z,15.08
2022-11-02T10:30:14.205Z,15.10
2022-11-02T10:31:33.372Z,15.13
2022-11-02T10:32:41.023Z,15.16
2022-11-02T10:33:52.941Z,15.17
2022-11-02T10:35:17.563Z,15.19
2022-11-02T10:36:39.759Z,15.21
2022-11-02T10:38:02.033Z,15.23
2022-11-02T10:39:25.225Z,15.25
2022-11-02T10:40:45.499Z,15.26
2022-11-02T10:42:11.776Z,15.26
2022-11-02T10:43:30.122Z,15.26
2022-11-02T10:44:58.988Z,15.26
2022-11-02T10:46:29.632Z,15.25
2022-11-02T10:47:45.817Z,15.26
2022-11-02T10:49:01.671Z,15.25
2022-11-02T10:50:30.316Z,15.28
2022-11-02T10:51:35.576Z,15.29
2022-11-02T10:52:45.808Z,15.29
2022-11-02T10:53:54.185Z,15.30
2022-11-02T10:54:57.677Z,15.31
2022-11-02T10:56:16.456Z,15.31
2022-11-02T10:57:29.059Z,15.30
2022-11-02T10:58:46.811Z,15.29
2022-11-02T11:00:23.835Z,15.29
2022-11-02T11:01:27.975Z,15.29
2022-11-02T11:02:33.386Z,15.28
2022-11-02T11:04:00.691Z,15.27
2022-11-02T11:05:13.278Z,15.29
2022-11-02T11:06:18.426Z,15.29
2022-11-02T11:07:29.388Z,15.32
2022-11-02T11:08:42.202Z,15.32
2022-11-02T11:09:51.215Z,15.36
2022-11-02T11:10:53.106Z,15.38
2022-11-02T11:12:05.183Z,15.39
2022-11-02T11:16:32.278Z,15.43
2022-11-02T11:20:56.761Z,15.45
2022-11-02T11:22:23.336Z,15.48
2022-11-02T11:23:27.931Z,15.48
2022-11-02T11:24:36.031Z,15.51
2022-11-02T11:25:40.872Z,15.52
2022-11-02T11:26:44.388Z,15.53
2022-11-02T11:27:56.974Z,15.54
2022-11-02T11:28:59.612Z,15.55
2022-11-02T11:30:03.649Z,15.57
2022-11-02T11:31:16.650Z,15.56
2022-11-02T11:32:24.597Z,15.57
2022-11-02T11:33:44.971Z,15.57
2022-11-02T11:35:02.039Z,15.58
2022-11-02T11:36:09.559Z,15.61
2022-11-02T11:37:17.109Z,15.64
2022-11-02T11:38:22.686Z,15.67
2022-11-02T11:39:30.163Z,15.69
2022-11-02T11:40:38.204Z,15.70
2022-11-02T11:41:41.951Z,15.72
2022-11-02T11:42:45.001Z,15.73
2022-11-02T11:43:48.329Z,15.74
2022-11-02T11:44:57.811Z,15.74
2022-11-02T11:46:05.684Z,15.76
2022-11-02T11:47:08.505Z,15.80
2022-11-02T11:48:35.823Z,15.83
2022-11-02T11:50:08.631Z,15.87
2022-11-02T11:51:27.370Z,15.90
2022-11-02T11:52:32.805Z,15.92
2022-11-02T11:53:35.451Z,15.96
2022-11-02T11:54:39.279Z,15.99
2022-11-02T11:56:37.291Z,16.04
2022-11-02T11:57:39.794Z,16.09
2022-11-02T11:58:50.870Z,16.15
2022-11-02T11:59:55.286Z,16.22
2022-11-02T12:01:10.793Z,16.29
2022-11-02T12:02:25.009Z,16.33
2022-11-02T12:03:26.692Z,16.36
2022-11-02T12:04:31.665Z,16.41
2022-11-02T12:05:46.733Z,16.45
2022-11-02T12:06:58.920Z,16.48
2022-11-02T12:08:29.276Z,16.48
2022-11-02T12:09:37.152Z,16.48
2022-11-02T12:10:51.360Z,16.47
2022-11-02T12:12:03.699Z,16.45
2022-11-02T12:13:18.559Z,16.45
2022-11-02T12:14:42.834Z,16.45
2022-11-02T12:16:00.462Z,16.46
2022-11-02T12:17:29.106Z,16.47
2022-11-02T12:18:46.278Z,16.45
2022-11-02T12:20:07.338Z,16.42
2022-11-02T12:21:38.396Z,16.38
2022-11-02T12:22:54.651Z,16.34
2022-11-02T12:24:08.495Z,16.29
2022-11-02T12:25:27.160Z,16.24
2022-11-02T12:26:42.248Z,16.22
2022-11-02T12:27:53.881Z,16.19
2022-11-02T12:29:08.231Z,16.15
2022-11-02T12:30:19.118Z,16.10
2022-11-02T12:31:32.390Z,16.05
2022-11-02T12:32:49.014Z,16.02
2022-11-02T12:34:09.354Z,15.99
2022-11-02T12:35:30.966Z,16.00
2022-11-02T12:37:31.275Z,15.99
2022-11-02T12:38:44.913Z,16.00
2022-11-02T12:40:08.957Z,15.97
2022-11-02T12:41:15.988Z,15.95
2022-11-02T12:42:28.200Z,15.93
2022-11-02T12:43:39.664Z,15.95
2022-11-02T12:44:54.051Z,15.98
2022-11-02T12:46:02.008Z,15.98
2022-11-02T12:47:17.977Z,15.99
2022-11-02T12:48:31.363Z,16.01
2022-11-02T12:49:41.418Z,16.07
2022-11-02T12:50:57.618Z,16.10
2022-11-02T12:52:12.572Z,16.12
2022-11-02T12:53:34.953Z,16.11
2022-11-02T12:54:46.022Z,16.07
2022-11-02T12:55:52.570Z,16.05
2022-11-02T12:56:55.879Z,16.03
2022-11-02T12:58:04.096Z,16.03
2022-11-02T12:59:06.992Z,16.00
2022-11-02T13:00:19.053Z,16.02
2022-11-02T13:01:27.547Z,16.04
2022-11-02T13:02:33.148Z,16.04
2022-11-02T13:03:44.407Z,16.07
2022-11-02T13:04:51.925Z,16.11
2022-11-02T13:06:02.205Z,16.12
2022-11-02T13:07:11.144Z,16.15
2022-11-02T13:08:17.922Z,16.19
2022-11-02T13:09:25.940Z,16.23
2022-11-02T13:10:31.704Z,16.27
2022-11-02T13:11:38.103Z,16.31
2022-11-02T13:12:41.079Z,16.35
2022-11-02T13:13:46.682Z,16.38
2022-11-02T13:14:50.627Z,16.41
2022-11-02T13:15:56.993Z,16.45
2022-11-02T13:17:06.299Z,16.51
2022-11-02T13:18:17.708Z,16.55
2022-11-02T13:19:24.190Z,16.60
2022-11-02T13:20:29.578Z,16.64
2022-11-02T13:21:42.758Z,16.70
2022-11-02T13:22:52.330Z,16.71
2022-11-02T13:23:59.097Z,16.72
2022-11-02T13:25:14.415Z,16.70
2022-11-02T13:26:27.950Z,16.65
2022-11-02T13:27:36.293Z,16.62
2022-11-02T13:28:45.797Z,16.59
2022-11-02T13:29:50.703Z,16.55
2022-11-02T13:30:54.886Z,16.53
2022-11-02T13:32:00.853Z,16.50
2022-11-02T13:33:09.476Z,16.47
2022-11-02T13:34:15.729Z,16.46
2022-11-02T13:35:24.138Z,16.45
2022-11-02T13:36:25.779Z,16.43
2022-11-02T13:37:35.035Z,16.42
2022-11-02T13:38:43.041Z,16.40
2022-11-02T13:39:48.372Z,16.38
2022-11-02T13:41:04.094Z,16.38
2022-11-02T13:42:32.186Z,16.38
2022-11-02T13:43:58.084Z,16.36
2022-11-02T13:45:22.592Z,16.39
2022-11-02T13:46:39.831Z,16.42
2022-11-02T13:48:08.982Z,16.42
2022-11-02T13:49:16.726Z,16.42
2022-11-02T13:50:22.062Z,16.43
2022-11-02T13:51:35.068Z,16.46
2022-11-02T13:52:41.330Z,16.47
2022-11-02T13:53:53.612Z,16.48
2022-11-02T13:55:01.715Z,16.48
2022-11-02T13:56:09.290Z,16.47
2022-11-02T13:57:27.848Z,16.45
2022-11-02T13:58:34.135Z,16.42
2022-11-02T13:59:43.013Z,16.39
2022-11-02T14:00:45.952Z,16.37
2022-11-02T14:01:49.601Z,16.36
2022-11-02T14:02:55.674Z,16.35
2022-11-02T14:04:03.106Z,16.32
2022-11-02T14:05:05.503Z,16.29
2022-11-02T14:06:13.074Z,16.29
2022-11-02T14:07:23.666Z,16.26
2022-11-02T14:08:36.056Z,16.25
2022-11-02T14:09:42.206Z,16.21
2022-11-02T14:10:44.705Z,16.19
2022-11-02T14:11:49.242Z,16.18
2022-11-02T14:12:51.917Z,16.17
2022-11-02T14:14:18.031Z,16.15
2022-11-02T14:15:42.799Z,16.11
2022-11-02T14:16:46.598Z,16.11
2022-11-02T14:18:08.639Z,16.09
2022-11-02T14:19:21.525Z,16.06
2022-11-02T14:20:33.572Z,16.06
2022-11-02T14:21:44.435Z,16.04
2022-11-02T14:23:42.456Z,16.02
2022-11-02T14:25:14.314Z,15.99
2022-11-02T14:26:55.125Z,15.95
2022-11-02T14:27:57.728Z,15.95
2022-11-02T14:29:03.203Z,15.92
2022-11-02T14:30:06.328Z,15.91
2022-11-02T14:31:50.793Z,15.89
2022-11-02T14:33:07.492Z,15.88
2022-11-02T14:34:28.040Z,15.87
2022-11-02T14:35:40.774Z,15.85
2022-11-02T14:37:00.497Z,15.86
2022-11-02T14:38:20.750Z,15.84